sensor_id;sensor_type;location;lat;lon;timestamp;temperature;humidity
3275;DHT22;1649;53.672;10.064;2023-07-22T00:01:11;13.80;99.90
3275;DHT22;1649;53.672;10.064;2023-07-22T00:03:36;13.80;99.90
3275;DHT22;1649;53.672;10.064;2023-07-22T00:06:06;13.90;99.90
3275;DHT22;1649;53.672;10.064;2023-07-22T00:08:33;13.80;99.90
3275;DHT22;1649;53.672;10.064;2023-07-22T00:10:59;13.70;99.90
3275;DHT22;1649;53.672;10.064;2023-07-22T00:13:25;13.80;99.90
3275;DHT22;1649;53.672;10.064;2023-07-22T00:15:53;13.70;99.90
3275;DHT22;1649;53.672;10.064;2023-07-22T00:18:18;13.80;99.90
3275;DHT22;1649;53.672;10.064;2023-07-22T00:20:44;13.70;99.90
3275;DHT22;1649;53.672;10.064;2023-07-22T00:23:09;13.70;99.90
3275;DHT22;1649;53.672;10.064;2023-07-22T00:25:36;13.70;99.90
3275;DHT22;1649;53.672;10.064;2023-07-22T00:28:01;13.70;99.90
3275;DHT22;1649;53.672;10.064;2023-07-22T00:30:27;13.70;99.90
3275;DHT22;1649;53.672;10.064;2023-07-22T00:32:53;13.80;99.90
3275;DHT22;1649;53.672;10.064;2023-07-22T00:35:19;13.80;99.90
3275;DHT22;1649;53.672;10.064;2023-07-22T00:37:44;13.80;99.90
3275;DHT22;1649;53.672;10.064;2023-07-22T00:40:10;13.70;99.90
3275;DHT22;1649;53.672;10.064;2023-07-22T00:42:39;13.70;99.90
3275;DHT22;1649;53.672;10.064;2023-07-22T00:45:05;13.80;99.90
3275;DHT22;1649;53.672;10.064;2023-07-22T00:47:33;13.80;99.90
3275;DHT22;1649;53.672;10.064;2023-07-22T00:50:01;13.80;99.90
3275;DHT22;1649;53.672;10.064;2023-07-22T00:52:27;13.90;99.90
3275;DHT22;1649;53.672;10.064;2023-07-22T00:54:53;13.80;99.90
3275;DHT22;1649;53.672;10.064;2023-07-22T00:57:19;13.90;99.90
3275;DHT22;1649;53.672;10.064;2023-07-22T00:59:45;13.80;99.90
3275;DHT22;1649;53.672;10.064;2023-07-22T01:02:10;13.90;99.90
3275;DHT22;1649;53.672;10.064;2023-07-22T01:04:36;13.70;99.90
3275;DHT22;1649;53.672;10.064;2023-07-22T01:07:04;13.70;99.90
3275;DHT22;1649;53.672;10.064;2023-07-22T01:09:40;13.70;99.90
3275;DHT22;1649;53.672;10.064;2023-07-22T01:12:06;13.60;99.90
3275;DHT22;1649;53.672;10.064;2023-07-22T01:14:42;13.60;99.90
3275;DHT22;1649;53.672;10.064;2023-07-22T01:17:09;13.60;99.90
3275;DHT22;1649;53.672;10.064;2023-07-22T01:19:35;13.60;99.90
3275;DHT22;1649;53.672;10.064;2023-07-22T01:22:03;13.70;99.90
3275;DHT22;1649;53.672;10.064;2023-07-22T01:24:30;13.70;99.90
3275;DHT22;1649;53.672;10.064;2023-07-22T01:26:56;13.70;99.90
3275;DHT22;1649;53.672;10.064;2023-07-22T01:29:23;13.70;99.90
3275;DHT22;1649;53.672;10.064;2023-07-22T01:31:50;13.60;99.90
3275;DHT22;1649;53.672;10.064;2023-07-22T01:34:15;13.60;99.90
3275;DHT22;1649;53.672;10.064;2023-07-22T01:36:42;13.60;99.90
3275;DHT22;1649;53.672;10.064;2023-07-22T01:39:08;13.60;99.90
3275;DHT22;1649;53.672;10.064;2023-07-22T01:41:34;13.60;99.90
3275;DHT22;1649;53.672;10.064;2023-07-22T01:43:59;13.60;99.90
3275;DHT22;1649;53.672;10.064;2023-07-22T01:46:25;13.60;99.90
3275;DHT22;1649;53.672;10.064;2023-07-22T01:48:50;13.60;99.90
3275;DHT22;1649;53.672;10.064;2023-07-22T01:51:16;13.60;99.90
3275;DHT22;1649;53.672;10.064;2023-07-22T01:53:41;13.60;99.90
3275;DHT22;1649;53.672;10.064;2023-07-22T01:56:07;13.60;99.90
3275;DHT22;1649;53.672;10.064;2023-07-22T01:58:33;13.50;99.90
3275;DHT22;1649;53.672;10.064;2023-07-22T02:03:26;13.40;99.90
3275;DHT22;1649;53.672;10.064;2023-07-22T02:05:52;13.40;99.90
3275;DHT22;1649;53.672;10.064;2023-07-22T02:08:17;13.40;99.90
3275;DHT22;1649;53.672;10.064;2023-07-22T02:10:43;13.40;99.90
3275;DHT22;1649;53.672;10.064;2023-07-22T02:13:08;13.40;99.90
3275;DHT22;1649;53.672;10.064;2023-07-22T02:15:34;13.40;99.90
3275;DHT22;1649;53.672;10.064;2023-07-22T02:18:00;13.40;99.90
3275;DHT22;1649;53.672;10.064;2023-07-22T02:20:25;13.40;99.90
3275;DHT22;1649;53.672;10.064;2023-07-22T02:22:54;13.40;99.90
3275;DHT22;1649;53.672;10.064;2023-07-22T02:25:20;13.30;99.90
3275;DHT22;1649;53.672;10.064;2023-07-22T02:27:45;13.30;99.90
3275;DHT22;1649;53.672;10.064;2023-07-22T02:30:11;13.30;99.90
3275;DHT22;1649;53.672;10.064;2023-07-22T02:32:39;13.30;99.90
3275;DHT22;1649;53.672;10.064;2023-07-22T02:35:08;13.40;99.90
3275;DHT22;1649;53.672;10.064;2023-07-22T02:37:37;13.40;99.90
3275;DHT22;1649;53.672;10.064;2023-07-22T02:40:03;13.40;99.90
3275;DHT22;1649;53.672;10.064;2023-07-22T02:42:36;13.40;99.90
3275;DHT22;1649;53.672;10.064;2023-07-22T02:45:02;13.30;99.90
3275;DHT22;1649;53.672;10.064;2023-07-22T02:47:28;13.40;99.90
3275;DHT22;1649;53.672;10.064;2023-07-22T02:49:54;13.30;99.90
3275;DHT22;1649;53.672;10.064;2023-07-22T02:52:19;13.20;99.90
3275;DHT22;1649;53.672;10.064;2023-07-22T02:55:10;13.20;99.90
3275;DHT22;1649;53.672;10.064;2023-07-22T02:57:37;13.10;99.90
3275;DHT22;1649;53.672;10.064;2023-07-22T03:00:04;13.10;99.90
3275;DHT22;1649;53.672;10.064;2023-07-22T03:02:34;13.10;99.90
3275;DHT22;1649;53.672;10.064;2023-07-22T03:04:59;13.10;99.90
3275;DHT22;1649;53.672;10.064;2023-07-22T03:07:25;13.10;99.90
3275;DHT22;1649;53.672;10.064;2023-07-22T03:09:52;13.20;99.90
3275;DHT22;1649;53.672;10.064;2023-07-22T03:12:18;13.20;99.90
3275;DHT22;1649;53.672;10.064;2023-07-22T03:14:43;13.10;99.90
3275;DHT22;1649;53.672;10.064;2023-07-22T03:17:09;13.10;99.90
3275;DHT22;1649;53.672;10.064;2023-07-22T03:19:34;13.00;99.90
3275;DHT22;1649;53.672;10.064;2023-07-22T03:22:01;13.00;99.90
3275;DHT22;1649;53.672;10.064;2023-07-22T03:24:26;13.00;99.90
3275;DHT22;1649;53.672;10.064;2023-07-22T03:26:52;13.10;99.90
3275;DHT22;1649;53.672;10.064;2023-07-22T03:29:17;13.00;99.90
3275;DHT22;1649;53.672;10.064;2023-07-22T03:31:43;13.10;99.90
3275;DHT22;1649;53.672;10.064;2023-07-22T03:34:08;13.10;99.90
3275;DHT22;1649;53.672;10.064;2023-07-22T03:36:34;13.20;99.90
3275;DHT22;1649;53.672;10.064;2023-07-22T03:38:59;13.20;99.90
3275;DHT22;1649;53.672;10.064;2023-07-22T03:41:25;13.10;99.90
3275;DHT22;1649;53.672;10.064;2023-07-22T03:43:50;13.20;99.90
3275;DHT22;1649;53.672;10.064;2023-07-22T03:46:16;13.10;99.90
3275;DHT22;1649;53.672;10.064;2023-07-22T03:48:41;13.10;99.90
3275;DHT22;1649;53.672;10.064;2023-07-22T03:51:07;13.10;99.90
3275;DHT22;1649;53.672;10.064;2023-07-22T03:53:32;13.10;99.90
3275;DHT22;1649;53.672;10.064;2023-07-22T03:55:58;13.10;99.90
3275;DHT22;1649;53.672;10.064;2023-07-22T03:58:23;13.10;99.90
3275;DHT22;1649;53.672;10.064;2023-07-22T04:00:49;13.10;99.90
3275;DHT22;1649;53.672;10.064;2023-07-22T04:03:15;13.10;99.90
3275;DHT22;1649;53.672;10.064;2023-07-22T04:05:41;13.00;99.90
3275;DHT22;1649;53.672;10.064;2023-07-22T04:08:06;13.00;99.90
3275;DHT22;1649;53.672;10.064;2023-07-22T04:10:31;13.10;99.90
3275;DHT22;1649;53.672;10.064;2023-07-22T04:12:57;13.10;99.90
3275;DHT22;1649;53.672;10.064;2023-07-22T04:15:23;13.20;99.90
3275;DHT22;1649;53.672;10.064;2023-07-22T04:17:48;13.20;99.90
3275;DHT22;1649;53.672;10.064;2023-07-22T04:20:14;13.20;99.90
3275;DHT22;1649;53.672;10.064;2023-07-22T04:22:39;13.20;99.90
3275;DHT22;1649;53.672;10.064;2023-07-22T04:25:05;13.30;99.90
3275;DHT22;1649;53.672;10.064;2023-07-22T04:27:31;13.20;99.90
3275;DHT22;1649;53.672;10.064;2023-07-22T04:29:56;13.30;99.90
3275;DHT22;1649;53.672;10.064;2023-07-22T04:32:22;13.30;99.90
3275;DHT22;1649;53.672;10.064;2023-07-22T04:34:48;13.30;99.90
3275;DHT22;1649;53.672;10.064;2023-07-22T04:37:13;13.40;99.90
3275;DHT22;1649;53.672;10.064;2023-07-22T04:39:39;13.40;99.90
3275;DHT22;1649;53.672;10.064;2023-07-22T04:42:05;13.50;99.90
3275;DHT22;1649;53.672;10.064;2023-07-22T04:44:30;13.50;99.90
3275;DHT22;1649;53.672;10.064;2023-07-22T04:46:56;13.50;99.90
3275;DHT22;1649;53.672;10.064;2023-07-22T04:49:21;13.50;99.90
3275;DHT22;1649;53.672;10.064;2023-07-22T04:51:48;13.50;99.90
3275;DHT22;1649;53.672;10.064;2023-07-22T04:54:14;13.50;99.90
3275;DHT22;1649;53.672;10.064;2023-07-22T04:56:41;13.50;99.90
3275;DHT22;1649;53.672;10.064;2023-07-22T04:59:06;13.50;99.90
3275;DHT22;1649;53.672;10.064;2023-07-22T05:01:32;13.60;99.90
3275;DHT22;1649;53.672;10.064;2023-07-22T05:03:57;13.70;99.90
3275;DHT22;1649;53.672;10.064;2023-07-22T05:06:23;13.70;99.90
3275;DHT22;1649;53.672;10.064;2023-07-22T05:08:50;13.90;99.90
3275;DHT22;1649;53.672;10.064;2023-07-22T05:11:16;14.10;99.90
3275;DHT22;1649;53.672;10.064;2023-07-22T05:13:41;14.20;99.90
3275;DHT22;1649;53.672;10.064;2023-07-22T05:16:07;14.20;99.90
3275;DHT22;1649;53.672;10.064;2023-07-22T05:18:33;14.30;99.90
3275;DHT22;1649;53.672;10.064;2023-07-22T05:20:58;14.30;99.90
3275;DHT22;1649;53.672;10.064;2023-07-22T05:23:23;14.30;99.90
3275;DHT22;1649;53.672;10.064;2023-07-22T05:25:53;14.30;99.90
3275;DHT22;1649;53.672;10.064;2023-07-22T05:28:19;14.30;99.90
3275;DHT22;1649;53.672;10.064;2023-07-22T05:30:45;14.40;99.90
3275;DHT22;1649;53.672;10.064;2023-07-22T05:33:10;14.40;99.90
3275;DHT22;1649;53.672;10.064;2023-07-22T05:35:36;14.50;99.90
3275;DHT22;1649;53.672;10.064;2023-07-22T05:38:01;14.50;99.90
3275;DHT22;1649;53.672;10.064;2023-07-22T05:40:29;14.50;99.90
3275;DHT22;1649;53.672;10.064;2023-07-22T05:42:55;14.60;99.90
3275;DHT22;1649;53.672;10.064;2023-07-22T05:45:21;14.80;99.90
3275;DHT22;1649;53.672;10.064;2023-07-22T05:47:46;14.90;99.90
3275;DHT22;1649;53.672;10.064;2023-07-22T05:50:12;15.00;99.90
3275;DHT22;1649;53.672;10.064;2023-07-22T05:52:37;15.00;99.90
3275;DHT22;1649;53.672;10.064;2023-07-22T05:55:03;15.00;99.90
3275;DHT22;1649;53.672;10.064;2023-07-22T05:57:30;15.00;99.90
3275;DHT22;1649;53.672;10.064;2023-07-22T05:59:55;15.10;99.90
3275;DHT22;1649;53.672;10.064;2023-07-22T06:02:21;15.20;99.90
3275;DHT22;1649;53.672;10.064;2023-07-22T06:04:46;15.30;99.90
3275;DHT22;1649;53.672;10.064;2023-07-22T06:07:12;15.30;99.90
3275;DHT22;1649;53.672;10.064;2023-07-22T06:09:37;15.30;99.90
3275;DHT22;1649;53.672;10.064;2023-07-22T06:12:03;15.30;99.90
3275;DHT22;1649;53.672;10.064;2023-07-22T06:14:29;15.40;99.90
3275;DHT22;1649;53.672;10.064;2023-07-22T06:16:54;15.50;99.90
3275;DHT22;1649;53.672;10.064;2023-07-22T06:19:20;15.60;99.90
3275;DHT22;1649;53.672;10.064;2023-07-22T06:21:45;15.60;99.90
3275;DHT22;1649;53.672;10.064;2023-07-22T06:24:11;15.80;99.90
3275;DHT22;1649;53.672;10.064;2023-07-22T06:26:36;15.80;99.90
3275;DHT22;1649;53.672;10.064;2023-07-22T06:29:02;15.80;99.90
3275;DHT22;1649;53.672;10.064;2023-07-22T06:31:27;16.00;99.90
3275;DHT22;1649;53.672;10.064;2023-07-22T06:33:58;16.00;99.90
3275;DHT22;1649;53.672;10.064;2023-07-22T06:36:28;16.30;99.90
3275;DHT22;1649;53.672;10.064;2023-07-22T06:38:54;16.40;99.90
3275;DHT22;1649;53.672;10.064;2023-07-22T06:41:20;16.50;99.90
3275;DHT22;1649;53.672;10.064;2023-07-22T06:43:45;16.60;99.90
3275;DHT22;1649;53.672;10.064;2023-07-22T06:46:11;16.70;99.90
3275;DHT22;1649;53.672;10.064;2023-07-22T06:48:37;16.70;99.90
3275;DHT22;1649;53.672;10.064;2023-07-22T06:51:02;16.80;99.90
3275;DHT22;1649;53.672;10.064;2023-07-22T06:53:28;16.90;99.90
3275;DHT22;1649;53.672;10.064;2023-07-22T06:55:54;16.80;99.90
3275;DHT22;1649;53.672;10.064;2023-07-22T06:58:20;16.90;99.90
3275;DHT22;1649;53.672;10.064;2023-07-22T07:00:46;17.20;99.90
3275;DHT22;1649;53.672;10.064;2023-07-22T07:03:12;17.50;99.90
3275;DHT22;1649;53.672;10.064;2023-07-22T07:05:37;17.50;99.90
3275;DHT22;1649;53.672;10.064;2023-07-22T07:08:06;17.80;99.90
3275;DHT22;1649;53.672;10.064;2023-07-22T07:10:37;17.80;99.90
3275;DHT22;1649;53.672;10.064;2023-07-22T07:13:02;17.70;99.90
3275;DHT22;1649;53.672;10.064;2023-07-22T07:15:28;17.90;99.90
3275;DHT22;1649;53.672;10.064;2023-07-22T07:17:54;18.00;99.90
3275;DHT22;1649;53.672;10.064;2023-07-22T07:20:19;18.20;99.90
3275;DHT22;1649;53.672;10.064;2023-07-22T07:22:45;18.40;99.90
3275;DHT22;1649;53.672;10.064;2023-07-22T07:25:10;19.00;99.90
3275;DHT22;1649;53.672;10.064;2023-07-22T07:27:37;20.00;99.90
3275;DHT22;1649;53.672;10.064;2023-07-22T07:30:02;21.20;99.90
3275;DHT22;1649;53.672;10.064;2023-07-22T07:32:28;22.20;99.90
3275;DHT22;1649;53.672;10.064;2023-07-22T07:34:53;22.90;99.90
3275;DHT22;1649;53.672;10.064;2023-07-22T07:37:19;23.00;99.90
3275;DHT22;1649;53.672;10.064;2023-07-22T07:39:44;23.20;99.90
3275;DHT22;1649;53.672;10.064;2023-07-22T07:42:10;23.70;99.80
3275;DHT22;1649;53.672;10.064;2023-07-22T07:44:35;23.60;99.40
3275;DHT22;1649;53.672;10.064;2023-07-22T07:47:01;24.30;99.10
3275;DHT22;1649;53.672;10.064;2023-07-22T07:49:26;24.10;98.60
3275;DHT22;1649;53.672;10.064;2023-07-22T07:51:52;23.20;98.30
3275;DHT22;1649;53.672;10.064;2023-07-22T07:54:17;23.00;98.90
3275;DHT22;1649;53.672;10.064;2023-07-22T07:56:43;23.20;99.90
3275;DHT22;1649;53.672;10.064;2023-07-22T07:59:08;22.70;99.00
3275;DHT22;1649;53.672;10.064;2023-07-22T08:01:34;21.90;99.90
3275;DHT22;1649;53.672;10.064;2023-07-22T08:04:01;21.10;99.90
3275;DHT22;1649;53.672;10.064;2023-07-22T08:06:26;20.70;99.90
3275;DHT22;1649;53.672;10.064;2023-07-22T08:08:52;20.20;99.90
3275;DHT22;1649;53.672;10.064;2023-07-22T08:11:17;20.10;99.90
3275;DHT22;1649;53.672;10.064;2023-07-22T08:13:44;20.20;99.90
3275;DHT22;1649;53.672;10.064;2023-07-22T08:16:12;20.10;99.90
3275;DHT22;1649;53.672;10.064;2023-07-22T08:18:38;19.60;99.90
3275;DHT22;1649;53.672;10.064;2023-07-22T08:21:05;19.30;99.90
3275;DHT22;1649;53.672;10.064;2023-07-22T08:23:34;19.20;99.90
3275;DHT22;1649;53.672;10.064;2023-07-22T08:26:01;19.10;99.90
3275;DHT22;1649;53.672;10.064;2023-07-22T08:28:27;19.50;99.90
3275;DHT22;1649;53.672;10.064;2023-07-22T08:30:55;20.40;99.90
3275;DHT22;1649;53.672;10.064;2023-07-22T08:33:22;21.20;99.90
3275;DHT22;1649;53.672;10.064;2023-07-22T08:35:47;22.20;99.90
3275;DHT22;1649;53.672;10.064;2023-07-22T08:38:14;22.60;99.40
3275;DHT22;1649;53.672;10.064;2023-07-22T08:40:40;23.40;99.10
3275;DHT22;1649;53.672;10.064;2023-07-22T08:43:08;23.90;97.30
3275;DHT22;1649;53.672;10.064;2023-07-22T08:45:36;23.30;97.10
3275;DHT22;1649;53.672;10.064;2023-07-22T08:48:12;22.30;97.30
3275;DHT22;1649;53.672;10.064;2023-07-22T08:50:53;21.90;99.10
3275;DHT22;1649;53.672;10.064;2023-07-22T08:53:19;21.70;98.40
3275;DHT22;1649;53.672;10.064;2023-07-22T08:55:46;21.70;99.60
3275;DHT22;1649;53.672;10.064;2023-07-22T08:58:13;21.90;98.50
3275;DHT22;1649;53.672;10.064;2023-07-22T09:00:39;21.90;96.90
3275;DHT22;1649;53.672;10.064;2023-07-22T09:03:05;21.60;96.40
3275;DHT22;1649;53.672;10.064;2023-07-22T09:05:33;21.20;99.00
3275;DHT22;1649;53.672;10.064;2023-07-22T09:07:59;21.40;99.90
3275;DHT22;1649;53.672;10.064;2023-07-22T09:10:27;22.10;99.90
3275;DHT22;1649;53.672;10.064;2023-07-22T09:12:53;22.70;99.90
3275;DHT22;1649;53.672;10.064;2023-07-22T09:15:20;22.80;98.90
3275;DHT22;1649;53.672;10.064;2023-07-22T09:17:46;22.70;96.80
3275;DHT22;1649;53.672;10.064;2023-07-22T09:20:13;23.20;98.50
3275;DHT22;1649;53.672;10.064;2023-07-22T09:22:50;23.80;95.80
3275;DHT22;1649;53.672;10.064;2023-07-22T09:25:22;23.80;95.00
3275;DHT22;1649;53.672;10.064;2023-07-22T09:27:49;24.20;96.00
3275;DHT22;1649;53.672;10.064;2023-07-22T09:30:25;24.50;93.70
3275;DHT22;1649;53.672;10.064;2023-07-22T09:32:58;24.90;93.40
3275;DHT22;1649;53.672;10.064;2023-07-22T09:35:27;25.00;93.80
3275;DHT22;1649;53.672;10.064;2023-07-22T09:37:54;24.60;93.00
3275;DHT22;1649;53.672;10.064;2023-07-22T09:40:24;24.40;95.10
3275;DHT22;1649;53.672;10.064;2023-07-22T09:42:55;24.90;93.30
3275;DHT22;1649;53.672;10.064;2023-07-22T09:45:25;25.40;89.10
3275;DHT22;1649;53.672;10.064;2023-07-22T09:47:52;25.60;89.80
3275;DHT22;1649;53.672;10.064;2023-07-22T09:50:19;25.10;92.60
3275;DHT22;1649;53.672;10.064;2023-07-22T09:52:49;24.80;90.90
3275;DHT22;1649;53.672;10.064;2023-07-22T09:55:16;24.40;93.20
3275;DHT22;1649;53.672;10.064;2023-07-22T09:57:50;23.90;91.60
3275;DHT22;1649;53.672;10.064;2023-07-22T10:00:16;23.70;92.20
3275;DHT22;1649;53.672;10.064;2023-07-22T10:02:46;24.30;94.60
3275;DHT22;1649;53.672;10.064;2023-07-22T10:05:24;25.00;90.90
3275;DHT22;1649;53.672;10.064;2023-07-22T10:07:52;25.50;91.20
3275;DHT22;1649;53.672;10.064;2023-07-22T10:10:28;25.50;91.90
3275;DHT22;1649;53.672;10.064;2023-07-22T10:12:55;25.60;88.80
3275;DHT22;1649;53.672;10.064;2023-07-22T10:15:22;25.70;89.40
3275;DHT22;1649;53.672;10.064;2023-07-22T10:17:50;25.60;89.30
3275;DHT22;1649;53.672;10.064;2023-07-22T10:20:16;25.60;90.40
3275;DHT22;1649;53.672;10.064;2023-07-22T10:22:43;25.60;89.40
3275;DHT22;1649;53.672;10.064;2023-07-22T10:25:20;25.90;86.30
3275;DHT22;1649;53.672;10.064;2023-07-22T10:27:47;25.90;89.70
3275;DHT22;1649;53.672;10.064;2023-07-22T10:30:14;25.90;83.80
3275;DHT22;1649;53.672;10.064;2023-07-22T10:32:46;25.60;88.60
3275;DHT22;1649;53.672;10.064;2023-07-22T10:35:17;25.70;90.00
3275;DHT22;1649;53.672;10.064;2023-07-22T10:37:47;25.50;89.60
3275;DHT22;1649;53.672;10.064;2023-07-22T10:40:29;25.80;88.20
3275;DHT22;1649;53.672;10.064;2023-07-22T10:43:05;26.00;86.60
3275;DHT22;1649;53.672;10.064;2023-07-22T10:45:39;26.60;87.60
3275;DHT22;1649;53.672;10.064;2023-07-22T10:48:13;26.30;82.80
3275;DHT22;1649;53.672;10.064;2023-07-22T10:50:49;26.20;81.00
3275;DHT22;1649;53.672;10.064;2023-07-22T10:56:06;25.40;82.10
3275;DHT22;1649;53.672;10.064;2023-07-22T11:12:01;25.80;83.70
3275;DHT22;1649;53.672;10.064;2023-07-22T11:14:47;25.10;81.80
3275;DHT22;1649;53.672;10.064;2023-07-22T11:17:13;24.70;82.10
3275;DHT22;1649;53.672;10.064;2023-07-22T11:19:39;24.70;79.50
3275;DHT22;1649;53.672;10.064;2023-07-22T11:22:06;24.80;83.70
3275;DHT22;1649;53.672;10.064;2023-07-22T11:24:33;24.80;83.40
3275;DHT22;1649;53.672;10.064;2023-07-22T11:27:07;24.60;85.00
3275;DHT22;1649;53.672;10.064;2023-07-22T11:29:34;24.10;86.20
3275;DHT22;1649;53.672;10.064;2023-07-22T11:32:00;23.60;84.60
3275;DHT22;1649;53.672;10.064;2023-07-22T11:34:26;23.50;83.60
3275;DHT22;1649;53.672;10.064;2023-07-22T11:36:52;23.70;88.20
3275;DHT22;1649;53.672;10.064;2023-07-22T11:39:23;24.10;87.20
3275;DHT22;1649;53.672;10.064;2023-07-22T11:41:50;24.20;88.10
3275;DHT22;1649;53.672;10.064;2023-07-22T11:44:21;24.30;85.60
3275;DHT22;1649;53.672;10.064;2023-07-22T11:46:57;24.40;86.10
3275;DHT22;1649;53.672;10.064;2023-07-22T11:49:27;24.60;86.70
3275;DHT22;1649;53.672;10.064;2023-07-22T11:52:06;25.00;84.30
3275;DHT22;1649;53.672;10.064;2023-07-22T11:54:33;25.00;86.30
3275;DHT22;1649;53.672;10.064;2023-07-22T11:57:30;25.60;84.70
3275;DHT22;1649;53.672;10.064;2023-07-22T11:59:56;25.80;87.30
3275;DHT22;1649;53.672;10.064;2023-07-22T12:02:23;25.90;83.80
3275;DHT22;1649;53.672;10.064;2023-07-22T12:04:57;25.40;79.20
3275;DHT22;1649;53.672;10.064;2023-07-22T12:07:36;25.20;86.40
3275;DHT22;1649;53.672;10.064;2023-07-22T12:10:08;24.90;87.10
3275;DHT22;1649;53.672;10.064;2023-07-22T12:12:45;24.60;82.70
3275;DHT22;1649;53.672;10.064;2023-07-22T12:15:19;24.20;83.40
3275;DHT22;1649;53.672;10.064;2023-07-22T12:17:58;24.00;87.30
3275;DHT22;1649;53.672;10.064;2023-07-22T12:20:29;23.50;84.90
3275;DHT22;1649;53.672;10.064;2023-07-22T12:22:55;23.20;86.30
3275;DHT22;1649;53.672;10.064;2023-07-22T12:25:21;22.90;90.50
3275;DHT22;1649;53.672;10.064;2023-07-22T12:27:46;22.90;88.30
3275;DHT22;1649;53.672;10.064;2023-07-22T12:30:12;22.80;87.90
3275;DHT22;1649;53.672;10.064;2023-07-22T12:32:38;22.60;88.60
3275;DHT22;1649;53.672;10.064;2023-07-22T12:35:05;22.50;90.00
3275;DHT22;1649;53.672;10.064;2023-07-22T12:37:31;22.40;89.20
3275;DHT22;1649;53.672;10.064;2023-07-22T12:39:57;22.20;90.40
3275;DHT22;1649;53.672;10.064;2023-07-22T12:42:22;22.10;89.70
3275;DHT22;1649;53.672;10.064;2023-07-22T12:44:48;22.00;90.40
3275;DHT22;1649;53.672;10.064;2023-07-22T12:47:13;21.90;91.30
3275;DHT22;1649;53.672;10.064;2023-07-22T12:49:39;21.60;91.10
3275;DHT22;1649;53.672;10.064;2023-07-22T12:52:04;21.20;93.20
3275;DHT22;1649;53.672;10.064;2023-07-22T12:54:34;20.80;98.70
3275;DHT22;1649;53.672;10.064;2023-07-22T12:57:01;20.40;99.90
3275;DHT22;1649;53.672;10.064;2023-07-22T12:59:26;19.70;99.90
3275;DHT22;1649;53.672;10.064;2023-07-22T13:01:52;19.20;99.90
3275;DHT22;1649;53.672;10.064;2023-07-22T13:04:18;18.60;99.90
3275;DHT22;1649;53.672;10.064;2023-07-22T13:06:43;18.20;99.90
3275;DHT22;1649;53.672;10.064;2023-07-22T13:09:08;18.00;99.90
3275;DHT22;1649;53.672;10.064;2023-07-22T13:11:34;17.90;99.90
3275;DHT22;1649;53.672;10.064;2023-07-22T13:14:01;17.80;99.90
3275;DHT22;1649;53.672;10.064;2023-07-22T13:16:27;17.80;99.90
3275;DHT22;1649;53.672;10.064;2023-07-22T13:18:53;17.90;99.90
3275;DHT22;1649;53.672;10.064;2023-07-22T13:21:18;18.00;99.90
3275;DHT22;1649;53.672;10.064;2023-07-22T13:23:44;18.00;99.90
3275;DHT22;1649;53.672;10.064;2023-07-22T13:26:09;17.90;99.90
3275;DHT22;1649;53.672;10.064;2023-07-22T13:28:35;18.00;99.90
3275;DHT22;1649;53.672;10.064;2023-07-22T13:31:00;18.20;99.90
3275;DHT22;1649;53.672;10.064;2023-07-22T13:33:26;18.50;99.90
3275;DHT22;1649;53.672;10.064;2023-07-22T13:35:51;18.70;99.90
3275;DHT22;1649;53.672;10.064;2023-07-22T13:38:17;18.80;99.90
3275;DHT22;1649;53.672;10.064;2023-07-22T13:40:42;19.00;99.90
3275;DHT22;1649;53.672;10.064;2023-07-22T13:43:08;19.00;99.90
3275;DHT22;1649;53.672;10.064;2023-07-22T13:45:34;19.10;99.90
3275;DHT22;1649;53.672;10.064;2023-07-22T13:48:00;19.20;99.90
3275;DHT22;1649;53.672;10.064;2023-07-22T13:50:25;19.30;99.90
3275;DHT22;1649;53.672;10.064;2023-07-22T13:52:51;19.30;99.90
3275;DHT22;1649;53.672;10.064;2023-07-22T13:55:16;19.40;99.90
3275;DHT22;1649;53.672;10.064;2023-07-22T13:57:42;19.30;99.90
3275;DHT22;1649;53.672;10.064;2023-07-22T14:00:08;19.30;99.90
3275;DHT22;1649;53.672;10.064;2023-07-22T14:02:37;19.20;99.90
3275;DHT22;1649;53.672;10.064;2023-07-22T14:05:03;18.90;99.90
3275;DHT22;1649;53.672;10.064;2023-07-22T14:07:29;18.80;99.90
3275;DHT22;1649;53.672;10.064;2023-07-22T14:09:55;18.70;99.90
3275;DHT22;1649;53.672;10.064;2023-07-22T14:12:20;18.80;99.90
3275;DHT22;1649;53.672;10.064;2023-07-22T14:14:46;18.90;99.90
3275;DHT22;1649;53.672;10.064;2023-07-22T14:17:11;19.10;99.90
3275;DHT22;1649;53.672;10.064;2023-07-22T14:19:37;19.20;99.90
3275;DHT22;1649;53.672;10.064;2023-07-22T14:22:03;19.10;99.90
3275;DHT22;1649;53.672;10.064;2023-07-22T14:24:29;18.90;99.90
3275;DHT22;1649;53.672;10.064;2023-07-22T14:26:54;18.90;99.90
3275;DHT22;1649;53.672;10.064;2023-07-22T14:29:20;19.10;99.90
3275;DHT22;1649;53.672;10.064;2023-07-22T14:31:46;19.30;99.90
3275;DHT22;1649;53.672;10.064;2023-07-22T14:34:11;19.40;99.90
3275;DHT22;1649;53.672;10.064;2023-07-22T14:36:37;19.50;99.90
3275;DHT22;1649;53.672;10.064;2023-07-22T14:39:02;19.50;99.90
3275;DHT22;1649;53.672;10.064;2023-07-22T14:41:29;19.50;99.90
3275;DHT22;1649;53.672;10.064;2023-07-22T14:43:55;19.50;99.90
3275;DHT22;1649;53.672;10.064;2023-07-22T14:46:21;19.60;99.90
3275;DHT22;1649;53.672;10.064;2023-07-22T14:48:46;19.70;99.90
3275;DHT22;1649;53.672;10.064;2023-07-22T14:51:12;19.90;99.90
3275;DHT22;1649;53.672;10.064;2023-07-22T14:53:38;20.00;99.90
3275;DHT22;1649;53.672;10.064;2023-07-22T14:56:04;19.90;99.90
3275;DHT22;1649;53.672;10.064;2023-07-22T14:58:31;19.90;99.90
3275;DHT22;1649;53.672;10.064;2023-07-22T15:00:57;19.70;99.90
3275;DHT22;1649;53.672;10.064;2023-07-22T15:03:22;19.60;99.90
3275;DHT22;1649;53.672;10.064;2023-07-22T15:05:48;19.60;99.90
3275;DHT22;1649;53.672;10.064;2023-07-22T15:08:13;19.50;99.90
3275;DHT22;1649;53.672;10.064;2023-07-22T15:10:39;19.40;99.90
3275;DHT22;1649;53.672;10.064;2023-07-22T15:13:04;19.40;99.90
3275;DHT22;1649;53.672;10.064;2023-07-22T15:15:30;19.50;99.90
3275;DHT22;1649;53.672;10.064;2023-07-22T15:17:55;19.30;99.90
3275;DHT22;1649;53.672;10.064;2023-07-22T15:20:21;19.40;99.90
3275;DHT22;1649;53.672;10.064;2023-07-22T15:22:46;19.40;99.90
3275;DHT22;1649;53.672;10.064;2023-07-22T15:25:12;19.30;99.90
3275;DHT22;1649;53.672;10.064;2023-07-22T15:27:37;19.20;99.90
3275;DHT22;1649;53.672;10.064;2023-07-22T15:30:03;19.10;99.90
3275;DHT22;1649;53.672;10.064;2023-07-22T15:32:29;19.10;99.90
3275;DHT22;1649;53.672;10.064;2023-07-22T15:34:54;19.10;99.90
3275;DHT22;1649;53.672;10.064;2023-07-22T15:37:20;19.10;99.90
3275;DHT22;1649;53.672;10.064;2023-07-22T15:39:45;19.00;99.90
3275;DHT22;1649;53.672;10.064;2023-07-22T15:42:11;18.80;99.90
3275;DHT22;1649;53.672;10.064;2023-07-22T15:44:36;18.70;99.90
3275;DHT22;1649;53.672;10.064;2023-07-22T15:47:02;18.70;99.90
3275;DHT22;1649;53.672;10.064;2023-07-22T15:49:28;18.70;99.90
3275;DHT22;1649;53.672;10.064;2023-07-22T15:51:53;18.70;99.90
3275;DHT22;1649;53.672;10.064;2023-07-22T15:54:19;18.70;99.90
3275;DHT22;1649;53.672;10.064;2023-07-22T15:56:45;18.70;99.90
3275;DHT22;1649;53.672;10.064;2023-07-22T15:59:10;18.50;99.90
3275;DHT22;1649;53.672;10.064;2023-07-22T16:01:36;18.40;99.90